createdAt,value
2022-11-20T00:00:41.273Z,-2.40
2022-11-20T00:03:08.169Z,-2.40
2022-11-20T00:05:35.070Z,-2.50
2022-11-20T00:08:02.123Z,-2.40
2022-11-20T00:10:29.110Z,-2.40
2022-11-20T00:12:55.958Z,-2.50
2022-11-20T00:15:22.899Z,-2.50
2022-11-20T00:17:49.825Z,-2.50
2022-11-20T00:20:16.768Z,-2.50
2022-11-20T00:22:43.770Z,-2.50
2022-11-20T00:25:11.004Z,-2.40
2022-11-20T00:27:38.521Z,-2.40
2022-11-20T00:30:11.034Z,-2.40
2022-11-20T00:32:39.276Z,-2.50
2022-11-20T00:35:06.456Z,-2.50
2022-11-20T00:37:33.384Z,-2.50
2022-11-20T00:40:00.353Z,-2.50
2022-11-20T00:42:27.234Z,-2.50
2022-11-20T00:44:54.141Z,-2.50
2022-11-20T00:47:21.399Z,-2.50
2022-11-20T00:49:48.280Z,-2.50
2022-11-20T00:52:15.291Z,-2.50
2022-11-20T00:54:42.401Z,-2.50
2022-11-20T00:57:09.251Z,-2.50
2022-11-20T00:59:36.077Z,-2.40
2022-11-20T01:02:03.030Z,-2.50
2022-11-20T01:04:29.955Z,-2.40
2022-11-20T01:06:56.824Z,-2.40
2022-11-20T01:09:23.997Z,-2.40
2022-11-20T01:11:51.053Z,-2.40
2022-11-20T01:14:20.596Z,-2.40
2022-11-20T01:16:50.628Z,-2.50
2022-11-20T01:19:21.983Z,-2.50
2022-11-20T01:21:53.029Z,-2.40
2022-11-20T01:24:21.691Z,-2.40
2022-11-20T01:26:50.829Z,-2.40
2022-11-20T01:29:24.282Z,-2.40
2022-11-20T01:31:52.454Z,-2.40
2022-11-20T01:34:20.982Z,-2.40
2022-11-20T01:36:48.038Z,-2.40
2022-11-20T01:39:17.445Z,-2.40
2022-11-20T01:42:09.448Z,-2.40
2022-11-20T01:44:59.343Z,-2.40
2022-11-20T01:47:45.959Z,-2.40
2022-11-20T01:50:23.739Z,-2.40
2022-11-20T01:53:02.818Z,-2.40
2022-11-20T01:55:33.509Z,-2.40
2022-11-20T01:58:02.401Z,-2.40
2022-11-20T02:00:29.373Z,-2.40
2022-11-20T02:03:04.682Z,-2.50
2022-11-20T02:05:55.745Z,-2.50
2022-11-20T02:08:24.377Z,-2.40
2022-11-20T02:10:51.699Z,-2.40
2022-11-20T02:13:37.157Z,-2.40
2022-11-20T02:16:05.022Z,-2.40
2022-11-20T02:18:32.153Z,-2.40
2022-11-20T02:21:15.668Z,-2.30
2022-11-20T02:23:54.783Z,-2.30
2022-11-20T02:26:24.049Z,-2.30
2022-11-20T02:28:51.516Z,-2.30
2022-11-20T02:31:18.348Z,-2.30
2022-11-20T02:33:45.372Z,-2.30
2022-11-20T02:36:17.011Z,-2.20
2022-11-20T02:38:44.775Z,-2.20
2022-11-20T02:41:11.626Z,-2.20
2022-11-20T02:43:38.453Z,-2.30
2022-11-20T02:46:08.242Z,-2.20
2022-11-20T02:48:35.551Z,-2.20
2022-11-20T02:51:02.663Z,-2.20
2022-11-20T02:53:29.464Z,-2.20
2022-11-20T02:55:56.660Z,-2.30
2022-11-20T02:58:23.592Z,-2.20
2022-11-20T03:00:51.383Z,-2.20
2022-11-20T03:03:18.429Z,-2.20
2022-11-20T03:05:45.286Z,-2.10
2022-11-20T03:08:12.132Z,-2.10
2022-11-20T03:11:19.986Z,-2.10
2022-11-20T03:13:46.864Z,-2.10
2022-11-20T03:16:19.813Z,-2.10
2022-11-20T03:18:46.796Z,-2.10
2022-11-20T03:21:14.936Z,-2.10
2022-11-20T03:23:42.384Z,-2.10
2022-11-20T03:26:14.733Z,-2.10
2022-11-20T03:28:46.684Z,-2.10
2022-11-20T03:31:16.102Z,-2.00
2022-11-20T03:33:43.453Z,-2.00
2022-11-20T03:36:13.272Z,-2.00
2022-11-20T03:38:41.001Z,-2.00
2022-11-20T03:41:11.417Z,-2.10
2022-11-20T03:43:38.661Z,-2.10
2022-11-20T03:46:06.716Z,-2.10
2022-11-20T03:48:33.698Z,-2.10
2022-11-20T03:51:22.185Z,-2.10
2022-11-20T03:53:50.715Z,-2.10
2022-11-20T03:56:19.766Z,-2.10
2022-11-20T03:58:47.296Z,-2.10
2022-11-20T04:01:17.667Z,-2.10
2022-11-20T04:03:45.087Z,-2.20
2022-11-20T04:06:13.677Z,-2.20
2022-11-20T04:08:40.641Z,-2.20
2022-11-20T04:11:18.118Z,-2.20
2022-11-20T04:13:49.041Z,-2.10
2022-11-20T04:16:16.838Z,-2.10
2022-11-20T04:18:44.558Z,-2.10
2022-11-20T04:21:11.896Z,-2.20
2022-11-20T04:23:39.165Z,-2.20
2022-11-20T04:26:08.427Z,-2.10
2022-11-20T04:28:35.877Z,-2.20
2022-11-20T04:31:08.756Z,-2.20
2022-11-20T04:33:36.676Z,-2.20
2022-11-20T04:36:09.029Z,-2.20
2022-11-20T04:38:35.911Z,-2.20
2022-11-20T04:41:05.119Z,-2.10
2022-11-20T04:43:32.707Z,-2.20
2022-11-20T04:46:00.822Z,-2.20
2022-11-20T04:48:29.268Z,-2.10
2022-11-20T04:50:56.397Z,-2.10
2022-11-20T04:53:24.573Z,-2.20
2022-11-20T04:55:51.496Z,-2.20
2022-11-20T04:58:18.327Z,-2.20
2022-11-20T05:00:45.221Z,-2.20
2022-11-20T05:03:12.209Z,-2.10
2022-11-20T05:05:39.167Z,-2.10
2022-11-20T05:08:06.085Z,-2.20
2022-11-20T05:10:32.930Z,-2.20
2022-11-20T05:12:59.937Z,-2.20
2022-11-20T05:15:26.962Z,-2.20
2022-11-20T05:17:54.201Z,-2.10
2022-11-20T05:20:21.586Z,-2.10
2022-11-20T05:22:48.437Z,-2.10
2022-11-20T05:25:15.533Z,-2.10
2022-11-20T05:27:42.466Z,-2.10
2022-11-20T05:30:10.142Z,-2.10
2022-11-20T05:32:37.036Z,-2.10
2022-11-20T05:35:04.122Z,-2.10
2022-11-20T05:37:31.011Z,-2.00
2022-11-20T05:39:57.916Z,-2.00
2022-11-20T05:42:33.875Z,-2.00
2022-11-20T05:45:02.710Z,-2.00
2022-11-20T05:47:33.430Z,-2.00
2022-11-20T05:50:00.859Z,-2.00
2022-11-20T05:52:31.081Z,-2.00
2022-11-20T05:54:58.212Z,-1.90
2022-11-20T05:57:25.754Z,-2.00
2022-11-20T05:59:52.761Z,-2.00
2022-11-20T06:02:19.729Z,-2.00
2022-11-20T06:04:46.973Z,-2.10
2022-11-20T06:07:13.861Z,-2.10
2022-11-20T06:09:41.074Z,-2.10
2022-11-20T06:12:08.228Z,-2.00
2022-11-20T06:14:35.205Z,-2.00
2022-11-20T06:17:02.204Z,-2.00
2022-11-20T06:19:29.275Z,-2.00
2022-11-20T06:21:56.272Z,-2.00
2022-11-20T06:24:23.795Z,-2.00
2022-11-20T06:26:50.756Z,-2.00
2022-11-20T06:29:17.621Z,-2.10
2022-11-20T06:31:44.473Z,-2.00
2022-11-20T06:34:11.613Z,-2.00
2022-11-20T06:36:38.512Z,-2.10
2022-11-20T06:39:05.414Z,-2.00
2022-11-20T06:41:32.401Z,-2.00
2022-11-20T06:43:59.269Z,-2.00
2022-11-20T06:46:26.290Z,-2.00
2022-11-20T06:48:53.419Z,-2.00
2022-11-20T06:51:20.326Z,-2.00
2022-11-20T06:53:47.426Z,-2.00
2022-11-20T06:56:14.618Z,-2.00
2022-11-20T06:58:41.508Z,-1.90
2022-11-20T07:01:13.738Z,-1.90
2022-11-20T07:03:41.162Z,-1.90
2022-11-20T07:06:09.019Z,-1.90
2022-11-20T07:08:36.392Z,-1.90
2022-11-20T07:11:06.575Z,-1.90
2022-11-20T07:13:33.848Z,-1.90
2022-11-20T07:16:06.559Z,-1.90
2022-11-20T07:18:33.552Z,-1.90
2022-11-20T07:21:09.446Z,-1.90
2022-11-20T07:23:36.643Z,-1.90
2022-11-20T07:26:07.856Z,-1.90
2022-11-20T07:28:35.178Z,-1.80
2022-11-20T07:31:02.776Z,-1.80
2022-11-20T07:33:29.949Z,-1.80
2022-11-20T07:35:56.872Z,-1.80
2022-11-20T07:38:23.778Z,-1.80
2022-11-20T07:40:55.686Z,-1.90
2022-11-20T07:43:22.606Z,-1.90
2022-11-20T07:45:49.464Z,-1.80
2022-11-20T07:48:16.451Z,-1.90
2022-11-20T07:50:43.288Z,-1.80
2022-11-20T07:53:10.153Z,-1.80
2022-11-20T07:55:37.209Z,-1.80
2022-11-20T07:58:04.054Z,-1.80
2022-11-20T08:00:30.984Z,-1.80
2022-11-20T08:02:58.071Z,-1.80
2022-11-20T08:05:25.082Z,-1.80
2022-11-20T08:07:52.480Z,-1.80
2022-11-20T08:10:19.571Z,-1.80
2022-11-20T08:13:10.362Z,-1.70
2022-11-20T08:15:39.024Z,-1.80
2022-11-20T08:21:03.556Z,-1.70
2022-11-20T08:23:30.453Z,-1.70
2022-11-20T08:25:57.229Z,-1.70
2022-11-20T08:28:24.237Z,-1.70
2022-11-20T08:30:51.693Z,-1.70
2022-11-20T08:33:19.528Z,-1.70
2022-11-20T08:35:46.726Z,-1.60
2022-11-20T08:38:13.751Z,-1.60
2022-11-20T08:40:40.609Z,-1.60
2022-11-20T08:43:07.599Z,-1.60
2022-11-20T08:45:35.408Z,-1.60
2022-11-20T08:48:03.352Z,-1.60
2022-11-20T08:50:32.596Z,-1.60
2022-11-20T08:53:06.111Z,-1.50
2022-11-20T08:55:33.110Z,-1.60
2022-11-20T08:58:05.309Z,-1.50
2022-11-20T09:00:33.452Z,-1.50
2022-11-20T09:03:02.304Z,-1.50
2022-11-20T09:05:29.569Z,-1.50
2022-11-20T09:08:00.049Z,-1.50
2022-11-20T09:10:28.227Z,-1.50
2022-11-20T09:12:56.375Z,-1.50
2022-11-20T09:15:24.370Z,-1.50
2022-11-20T09:17:59.255Z,-1.50
2022-11-20T09:20:27.853Z,-1.50
2022-11-20T09:22:54.728Z,-1.60
2022-11-20T09:25:21.970Z,-1.50
2022-11-20T09:27:56.685Z,-1.50
2022-11-20T09:30:23.582Z,-1.50
2022-11-20T09:32:50.520Z,-1.50
2022-11-20T09:35:18.833Z,-1.50
2022-11-20T09:37:46.332Z,-1.50
2022-11-20T09:40:28.679Z,-1.50
2022-11-20T09:43:46.643Z,-1.40
2022-11-20T09:46:28.838Z,-1.50
2022-11-20T09:49:04.713Z,-1.50
2022-11-20T09:51:34.346Z,-1.50
2022-11-20T09:54:07.173Z,-1.50
2022-11-20T09:56:39.548Z,-1.50
2022-11-20T09:59:09.193Z,-1.60
2022-11-20T10:01:39.409Z,-1.60
2022-11-20T10:04:15.672Z,-1.60
2022-11-20T10:06:59.421Z,-1.50
2022-11-20T10:09:38.283Z,-1.50
2022-11-20T10:12:27.681Z,-1.50
2022-11-20T10:15:03.773Z,-1.50
2022-11-20T10:17:59.930Z,-1.50
2022-11-20T10:20:45.925Z,-1.40
2022-11-20T10:23:25.771Z,-1.40
2022-11-20T10:26:03.305Z,-1.40
2022-11-20T10:28:43.586Z,-1.30
2022-11-20T10:31:25.274Z,-1.30
2022-11-20T10:34:11.716Z,-1.20
2022-11-20T10:36:56.826Z,-1.30
2022-11-20T10:39:38.009Z,-1.20
2022-11-20T10:42:15.424Z,-1.20
2022-11-20T10:45:06.141Z,-1.20
2022-11-20T10:47:34.400Z,-1.20
2022-11-20T10:50:10.708Z,-1.10
2022-11-20T10:52:57.821Z,-1.10
2022-11-20T10:55:56.863Z,-1.10
2022-11-20T10:58:38.852Z,-1.10
2022-11-20T11:01:12.944Z,-1.20
2022-11-20T11:03:40.035Z,-1.20
2022-11-20T11:06:41.889Z,-1.20
2022-11-20T11:09:21.010Z,-1.10
2022-11-20T11:11:48.409Z,-1.10
2022-11-20T11:14:16.769Z,-1.00
2022-11-20T11:16:58.144Z,-1.00
2022-11-20T11:19:25.743Z,-0.90
2022-11-20T11:21:57.760Z,-0.90
2022-11-20T11:24:42.999Z,-0.90
2022-11-20T11:27:18.675Z,-0.90
2022-11-20T11:29:47.089Z,-0.80
2022-11-20T11:32:19.487Z,-0.90
2022-11-20T11:34:46.516Z,-0.90
2022-11-20T11:37:20.769Z,-0.90
2022-11-20T11:39:55.096Z,-0.90
2022-11-20T11:42:31.805Z,-0.90
2022-11-20T11:45:07.201Z,-1.00
2022-11-20T11:47:48.196Z,-1.00
2022-11-20T11:50:26.452Z,-1.10
2022-11-20T11:53:17.701Z,-1.00
2022-11-20T11:55:57.746Z,-1.00
2022-11-20T11:58:46.545Z,-1.10
2022-11-20T12:01:16.441Z,-1.10
2022-11-20T12:03:50.193Z,-1.10
2022-11-20T12:06:18.172Z,-1.10
2022-11-20T12:08:59.004Z,-1.10
2022-11-20T12:11:35.901Z,-1.20
2022-11-20T12:14:18.065Z,-1.10
2022-11-20T12:16:44.977Z,-1.10
2022-11-20T12:19:14.521Z,-1.10
2022-11-20T12:22:01.986Z,-1.10
2022-11-20T12:24:56.948Z,-1.10
2022-11-20T12:27:45.643Z,-1.10
2022-11-20T12:30:17.710Z,-1.00
2022-11-20T12:32:56.872Z,-1.00
2022-11-20T12:35:38.970Z,-1.00
2022-11-20T12:38:33.120Z,-1.00
2022-11-20T12:41:43.700Z,-0.90
2022-11-20T12:44:32.153Z,-0.90
2022-11-20T12:47:21.794Z,-0.90
2022-11-20T12:49:54.401Z,-1.00
2022-11-20T12:52:47.026Z,-1.00
2022-11-20T12:55:33.550Z,-1.10
2022-11-20T12:58:30.996Z,-1.10
2022-11-20T13:01:03.636Z,-1.10
2022-11-20T13:03:42.521Z,-1.10
2022-11-20T13:06:20.005Z,-1.10
2022-11-20T13:08:55.080Z,-1.10
2022-11-20T13:11:28.065Z,-1.10
2022-11-20T13:14:24.014Z,-1.10
2022-11-20T13:16:53.920Z,-1.20
2022-11-20T13:19:21.436Z,-1.20
2022-11-20T13:21:51.339Z,-1.20
2022-11-20T13:24:24.273Z,-1.20
2022-11-20T13:27:09.509Z,-1.20
2022-11-20T13:29:38.757Z,-1.20
2022-11-20T13:32:07.997Z,-1.20
2022-11-20T13:34:36.936Z,-1.10
2022-11-20T13:37:06.976Z,-1.10
2022-11-20T13:39:37.753Z,-1.00
2022-11-20T13:42:27.692Z,-1.00
2022-11-20T13:45:09.406Z,-1.00
2022-11-20T13:47:37.162Z,-1.00
2022-11-20T13:50:05.672Z,-1.00
2022-11-20T13:52:51.804Z,-1.00
2022-11-20T13:55:41.578Z,-1.00
2022-11-20T13:58:22.687Z,-1.00
2022-11-20T14:01:22.416Z,-1.00
2022-11-20T14:04:06.546Z,-1.00
2022-11-20T14:06:42.077Z,-1.00
2022-11-20T14:09:32.715Z,-0.90
2022-11-20T14:12:00.200Z,-0.90
2022-11-20T14:14:34.154Z,-0.90
2022-11-20T14:17:23.092Z,-0.90
2022-11-20T14:19:52.266Z,-0.90
2022-11-20T14:22:28.658Z,-0.90
2022-11-20T14:25:06.300Z,-0.90
2022-11-20T14:27:42.579Z,-0.90
2022-11-20T14:30:19.221Z,-0.90
2022-11-20T14:32:47.620Z,-0.90
2022-11-20T14:35:22.604Z,-0.90
2022-11-20T14:37:49.725Z,-0.90
2022-11-20T14:40:29.903Z,-0.90
2022-11-20T14:42:58.143Z,-0.90
2022-11-20T14:45:26.644Z,-0.90
2022-11-20T14:47:58.538Z,-0.90
2022-11-20T14:50:28.045Z,-0.90
2022-11-20T14:53:00.011Z,-0.90
2022-11-20T14:55:34.796Z,-0.90
2022-11-20T14:58:23.338Z,-0.90
2022-11-20T15:01:06.498Z,-0.90
2022-11-20T15:03:36.095Z,-0.90
2022-11-20T15:06:03.537Z,-0.90
2022-11-20T15:08:30.787Z,-0.90
2022-11-20T15:10:58.591Z,-0.90
2022-11-20T15:13:32.583Z,-0.90
2022-11-20T15:16:02.672Z,-0.90
2022-11-20T15:18:37.674Z,-0.90
2022-11-20T15:21:11.940Z,-0.90
2022-11-20T15:23:38.896Z,-0.90
2022-11-20T15:26:06.974Z,-0.90
2022-11-20T15:28:36.915Z,-0.90
2022-11-20T15:31:05.255Z,-1.00
2022-11-20T15:33:33.908Z,-0.90
2022-11-20T15:36:00.945Z,-0.90
2022-11-20T15:38:28.075Z,-1.00
2022-11-20T15:40:54.869Z,-1.00
2022-11-20T15:43:21.788Z,-1.00
2022-11-20T15:46:00.117Z,-0.90
2022-11-20T15:48:28.232Z,-0.90
2022-11-20T15:50:59.614Z,-0.90
2022-11-20T15:53:26.537Z,-0.90
2022-11-20T15:55:53.514Z,-0.90
2022-11-20T15:58:20.684Z,-0.90
2022-11-20T16:00:47.606Z,-0.90
2022-11-20T16:03:16.446Z,-0.90
2022-11-20T16:05:43.761Z,-0.90
2022-11-20T16:08:11.939Z,-0.90
2022-11-20T16:10:39.646Z,-0.90
2022-11-20T16:13:32.386Z,-0.90
2022-11-20T16:16:02.105Z,-0.90
2022-11-20T16:18:29.034Z,-0.90
2022-11-20T16:20:56.293Z,-0.90
2022-11-20T16:23:23.757Z,-0.90
2022-11-20T16:25:51.432Z,-0.90
2022-11-20T16:28:19.458Z,-0.90
2022-11-20T16:30:47.044Z,-0.90
2022-11-20T16:33:16.396Z,-0.90
2022-11-20T16:35:43.317Z,-0.90
2022-11-20T16:38:10.588Z,-0.90
2022-11-20T16:40:37.559Z,-0.90
2022-11-20T16:43:13.994Z,-0.90
2022-11-20T16:45:42.891Z,-0.90
2022-11-20T16:48:16.283Z,-0.90
2022-11-20T16:50:53.923Z,-0.90
2022-11-20T16:53:22.578Z,-0.90
2022-11-20T16:55:49.604Z,-0.90
2022-11-20T16:58:16.833Z,-0.90
2022-11-20T17:00:50.055Z,-0.90
2022-11-20T17:03:18.894Z,-0.90
2022-11-20T17:05:45.749Z,-0.90
2022-11-20T17:08:12.635Z,-0.90
2022-11-20T17:10:39.634Z,-0.90
2022-11-20T17:13:06.481Z,-0.90
2022-11-20T17:15:33.331Z,-0.90
2022-11-20T17:18:00.264Z,-0.90
2022-11-20T17:20:27.515Z,-0.90
2022-11-20T17:22:54.358Z,-0.90
2022-11-20T17:25:21.239Z,-0.90
2022-11-20T17:27:48.202Z,-0.90
2022-11-20T17:30:15.462Z,-0.90
2022-11-20T17:32:46.949Z,-0.90
2022-11-20T17:35:13.959Z,-0.90
2022-11-20T17:37:41.007Z,-0.90
2022-11-20T17:40:08.192Z,-0.80
2022-11-20T17:42:36.906Z,-0.80
2022-11-20T17:45:05.043Z,-0.80
2022-11-20T17:47:31.846Z,-0.80
2022-11-20T17:49:58.923Z,-0.80
2022-11-20T17:52:25.798Z,-0.80
2022-11-20T17:54:55.855Z,-0.90
2022-11-20T17:57:42.699Z,-0.90
2022-11-20T18:00:13.032Z,-0.90
2022-11-20T18:02:40.286Z,-0.90
2022-11-20T18:05:07.458Z,-0.90
2022-11-20T18:07:40.145Z,-0.90
2022-11-20T18:10:09.340Z,-0.90
2022-11-20T18:12:36.460Z,-0.90
2022-11-20T18:15:04.018Z,-0.90
2022-11-20T18:17:30.891Z,-0.90
2022-11-20T18:20:26.744Z,-0.90
2022-11-20T18:22:45.136Z,-0.90
2022-11-20T18:25:12.218Z,-0.90
2022-11-20T18:27:39.095Z,-0.90
2022-11-20T18:30:06.898Z,-0.90
2022-11-20T18:32:35.981Z,-0.90
2022-11-20T18:35:03.439Z,-0.90
2022-11-20T18:37:32.098Z,-0.90
2022-11-20T18:39:58.978Z,-0.90
2022-11-20T18:42:44.574Z,-0.90
2022-11-20T18:45:11.471Z,-0.90
2022-11-20T18:47:40.092Z,-0.90
2022-11-20T18:50:08.871Z,-0.90
2022-11-20T18:52:47.943Z,-0.90
2022-11-20T18:55:15.114Z,-0.90
2022-11-20T18:57:42.340Z,-0.90
2022-11-20T19:00:11.683Z,-1.00
2022-11-20T19:02:42.235Z,-0.90
2022-11-20T19:05:14.458Z,-0.90
2022-11-20T19:07:41.820Z,-0.90
2022-11-20T19:10:09.297Z,-0.90
2022-11-20T19:12:36.472Z,-1.00
2022-11-20T19:15:04.196Z,-1.00
2022-11-20T19:17:32.468Z,-0.90
2022-11-20T19:20:00.317Z,-0.90
2022-11-20T19:22:27.245Z,-0.90
2022-11-20T19:24:54.348Z,-0.90
2022-11-20T19:27:21.409Z,-0.90
2022-11-20T19:29:48.494Z,-0.90
2022-11-20T19:32:16.330Z,-0.90
2022-11-20T19:34:43.739Z,-0.90
2022-11-20T19:37:10.866Z,-0.90
2022-11-20T19:39:37.897Z,-0.90
2022-11-20T19:42:05.404Z,-0.80
2022-11-20T19:44:33.067Z,-0.90
2022-11-20T19:47:00.695Z,-0.80
2022-11-20T19:49:27.646Z,-0.80
2022-11-20T19:51:54.544Z,-0.80
2022-11-20T19:54:21.448Z,-0.80
2022-11-20T19:56:49.601Z,-0.80
2022-11-20T19:59:16.664Z,-0.80
2022-11-20T20:01:43.761Z,-0.80
2022-11-20T20:04:10.885Z,-0.80
2022-11-20T20:06:41.669Z,-0.80
2022-11-20T20:09:11.995Z,-0.80
2022-11-20T20:11:39.812Z,-0.80
2022-11-20T20:14:14.798Z,-0.80
2022-11-20T20:16:42.452Z,-0.80
2022-11-20T20:19:14.462Z,-0.80
2022-11-20T20:21:41.826Z,-0.80
2022-11-20T20:24:10.655Z,-0.80
2022-11-20T20:26:37.644Z,-0.80
2022-11-20T20:29:04.882Z,-0.90
2022-11-20T20:31:33.632Z,-0.90
2022-11-20T20:34:01.815Z,-0.90
2022-11-20T20:36:28.808Z,-0.90
2022-11-20T20:38:57.064Z,-0.90
2022-11-20T20:41:25.233Z,-0.90
2022-11-20T20:44:11.639Z,-0.90
2022-11-20T20:46:39.352Z,-0.90
2022-11-20T20:49:07.293Z,-0.90
2022-11-20T20:51:34.263Z,-0.90
2022-11-20T20:54:01.195Z,-0.90
2022-11-20T20:56:28.360Z,-0.90
2022-11-20T20:58:55.291Z,-0.90
2022-11-20T21:01:22.965Z,-0.90
2022-11-20T21:03:49.954Z,-0.90
2022-11-20T21:06:17.086Z,-0.90
2022-11-20T21:08:44.749Z,-0.90
2022-11-20T21:11:18.117Z,-0.90
2022-11-20T21:13:47.497Z,-0.90
2022-11-20T21:16:15.910Z,-0.90
2022-11-20T21:18:42.812Z,-0.90
2022-11-20T21:21:31.649Z,-0.90
2022-11-20T21:23:58.805Z,-0.90
2022-11-20T21:26:25.921Z,-0.80
2022-11-20T21:28:52.874Z,-0.80
2022-11-20T21:31:26.535Z,-0.80
2022-11-20T21:33:55.198Z,-0.80
2022-11-20T21:36:25.080Z,-0.80
2022-11-20T21:38:54.655Z,-0.80
2022-11-20T21:41:22.308Z,-0.90
2022-11-20T21:44:15.973Z,-0.90
2022-11-20T21:46:40.621Z,-0.90
2022-11-20T21:49:07.741Z,-0.90
2022-11-20T21:51:34.806Z,-0.90
2022-11-20T21:54:01.857Z,-0.90
2022-11-20T21:56:28.761Z,-0.90
2022-11-20T21:58:55.740Z,-0.90
2022-11-20T22:01:30.573Z,-0.90
2022-11-20T22:04:00.612Z,-0.90
2022-11-20T22:06:34.145Z,-0.90
2022-11-20T22:09:02.233Z,-0.90
2022-11-20T22:11:29.064Z,-0.90
2022-11-20T22:14:14.816Z,-0.90
2022-11-20T22:16:44.549Z,-0.90
2022-11-20T22:19:11.699Z,-0.90
2022-11-20T22:21:41.996Z,-0.90
2022-11-20T22:24:12.899Z,-0.90
2022-11-20T22:26:40.878Z,-0.90
2022-11-20T22:29:08.487Z,-0.90
2022-11-20T22:31:35.294Z,-0.90
2022-11-20T22:34:02.858Z,-0.90
2022-11-20T22:36:30.861Z,-0.90
2022-11-20T22:38:57.807Z,-0.90
2022-11-20T22:41:28.694Z,-0.90
2022-11-20T22:43:57.858Z,-0.90
2022-11-20T22:46:25.955Z,-0.90
2022-11-20T22:48:53.805Z,-0.90
2022-11-20T22:51:26.701Z,-0.90
2022-11-20T22:53:53.974Z,-0.90
2022-11-20T22:56:21.393Z,-0.90
2022-11-20T22:58:50.075Z,-0.90
2022-11-20T23:01:31.442Z,-0.90
2022-11-20T23:04:00.857Z,-0.90
2022-11-20T23:06:28.551Z,-0.90
2022-11-20T23:08:56.116Z,-0.90
2022-11-20T23:11:30.545Z,-0.90
2022-11-20T23:14:00.271Z,-0.90
2022-11-20T23:16:29.251Z,-0.90
2022-11-20T23:18:59.163Z,-0.90
2022-11-20T23:21:26.833Z,-0.90
2022-11-20T23:23:55.624Z,-1.00
2022-11-20T23:26:25.024Z,-1.00
2022-11-20T23:28:54.292Z,-1.00
2022-11-20T23:31:21.688Z,-1.00
2022-11-20T23:33:48.639Z,-1.00
2022-11-20T23:36:16.017Z,-1.00
2022-11-20T23:38:42.994Z,-1.00
2022-11-20T23:41:10.147Z,-1.00
2022-11-20T23:43:37.265Z,-1.00
2022-11-20T23:46:04.643Z,-1.00
2022-11-20T23:48:33.827Z,-1.00
2022-11-20T23:51:01.185Z,-1.00
2022-11-20T23:53:28.778Z,-1.00
2022-11-20T23:56:02.084Z,-0.90
2022-11-20T23:58:36.792Z,-0.90
